Terminal Aerodrome Forecast
Issued by NWS

Current Version | Previous Version | Text Only | Print | Product List | Glossary On
Versions: 1 2 3 4 5 6 7 8 9 10 11 12 13 14 15 16 17 18 19 20 21 22 23 24 25 26 27 28 29 30 31 32 33 34 35 36 37 38 39 40 41 42 43 44 45
000 FTUS41 KBOX 232329 TAFMHT TAF KMHT 232329Z 2400/2424 VRB06KT P6SM OVC070 FM241000 VRB03KT 5SM -RA BR OVC035 WS020/17030KT FM241200 11004KT 3SM RA OVC015 WS020/17040KT FM241700 16006KT P6SM OVC015 WS020/21035KT=

USA.gov is the U.S. government's official web portal to all federal, state and local government web resources and services.